sensor_id;sensor_type;location;lat;lon;timestamp;P1;durP1;ratioP1;P2;durP2;ratioP2
8179;SDS011;4131;48.810;11.892;2023-02-28T00:00:04;0.00;;;0.00;;
8179;SDS011;4131;48.810;11.892;2023-02-28T00:02:37;1.00;;;0.93;;
8179;SDS011;4131;48.810;11.892;2023-02-28T00:05:07;0.00;;;0.00;;
8179;SDS011;4131;48.810;11.892;2023-02-28T00:07:37;0.10;;;0.10;;
8179;SDS011;4131;48.810;11.892;2023-02-28T00:10:06;0.40;;;0.33;;
8179;SDS011;4131;48.810;11.892;2023-02-28T00:12:36;0.00;;;0.00;;
8179;SDS011;4131;48.810;11.892;2023-02-28T00:15:05;0.30;;;0.13;;
8179;SDS011;4131;48.810;11.892;2023-02-28T00:17:34;0.20;;;0.20;;
8179;SDS011;4131;48.810;11.892;2023-02-28T00:20:05;0.50;;;0.33;;
8179;SDS011;4131;48.810;11.892;2023-02-28T00:22:36;0.00;;;0.00;;
8179;SDS011;4131;48.810;11.892;2023-02-28T00:25:05;0.00;;;0.00;;
8179;SDS011;4131;48.810;11.892;2023-02-28T00:27:34;0.00;;;0.00;;
8179;SDS011;4131;48.810;11.892;2023-02-28T00:30:03;0.10;;;0.10;;
8179;SDS011;4131;48.810;11.892;2023-02-28T00:32:32;0.37;;;0.37;;
8179;SDS011;4131;48.810;11.892;2023-02-28T00:35:01;0.10;;;0.10;;
8179;SDS011;4131;48.810;11.892;2023-02-28T00:37:31;0.20;;;0.20;;
8179;SDS011;4131;48.810;11.892;2023-02-28T00:39:59;0.00;;;0.00;;
8179;SDS011;4131;48.810;11.892;2023-02-28T00:42:30;0.00;;;0.00;;
8179;SDS011;4131;48.810;11.892;2023-02-28T00:44:59;0.57;;;0.57;;
8179;SDS011;4131;48.810;11.892;2023-02-28T00:47:27;0.00;;;0.00;;
8179;SDS011;4131;48.810;11.892;2023-02-28T00:49:56;0.00;;;0.00;;
8179;SDS011;4131;48.810;11.892;2023-02-28T00:52:25;0.50;;;0.50;;
8179;SDS011;4131;48.810;11.892;2023-02-28T00:54:55;0.00;;;0.00;;
8179;SDS011;4131;48.810;11.892;2023-02-28T00:57:23;0.43;;;0.37;;
8179;SDS011;4131;48.810;11.892;2023-02-28T00:59:52;0.27;;;0.13;;
8179;SDS011;4131;48.810;11.892;2023-02-28T01:02:21;0.00;;;0.00;;
8179;SDS011;4131;48.810;11.892;2023-02-28T01:04:49;0.00;;;0.00;;
8179;SDS011;4131;48.810;11.892;2023-02-28T01:07:18;0.00;;;0.00;;
8179;SDS011;4131;48.810;11.892;2023-02-28T01:09:47;0.10;;;0.10;;
8179;SDS011;4131;48.810;11.892;2023-02-28T01:12:16;0.17;;;0.17;;
8179;SDS011;4131;48.810;11.892;2023-02-28T01:14:44;0.00;;;0.00;;
8179;SDS011;4131;48.810;11.892;2023-02-28T01:17:12;0.00;;;0.00;;
8179;SDS011;4131;48.810;11.892;2023-02-28T01:19:41;0.20;;;0.20;;
8179;SDS011;4131;48.810;11.892;2023-02-28T01:22:09;1.77;;;0.80;;
8179;SDS011;4131;48.810;11.892;2023-02-28T01:24:38;0.70;;;0.70;;
8179;SDS011;4131;48.810;11.892;2023-02-28T01:27:06;0.07;;;0.07;;
8179;SDS011;4131;48.810;11.892;2023-02-28T01:29:36;0.00;;;0.00;;
8179;SDS011;4131;48.810;11.892;2023-02-28T01:32:04;0.10;;;0.10;;
8179;SDS011;4131;48.810;11.892;2023-02-28T01:34:33;0.10;;;0.10;;
8179;SDS011;4131;48.810;11.892;2023-02-28T01:37:01;0.00;;;0.00;;
8179;SDS011;4131;48.810;11.892;2023-02-28T01:39:29;0.10;;;0.10;;
8179;SDS011;4131;48.810;11.892;2023-02-28T01:41:58;2.77;;;0.57;;
8179;SDS011;4131;48.810;11.892;2023-02-28T01:47:29;0.00;;;0.00;;
8179;SDS011;4131;48.810;11.892;2023-02-28T01:49:59;0.00;;;0.00;;
8179;SDS011;4131;48.810;11.892;2023-02-28T01:52:30;0.00;;;0.00;;
8179;SDS011;4131;48.810;11.892;2023-02-28T01:55:01;0.20;;;0.20;;
8179;SDS011;4131;48.810;11.892;2023-02-28T01:57:32;0.00;;;0.00;;
8179;SDS011;4131;48.810;11.892;2023-02-28T02:00:06;0.50;;;0.50;;
8179;SDS011;4131;48.810;11.892;2023-02-28T02:02:39;0.00;;;0.00;;
8179;SDS011;4131;48.810;11.892;2023-02-28T02:05:11;0.00;;;0.00;;
8179;SDS011;4131;48.810;11.892;2023-02-28T02:07:43;0.00;;;0.00;;
8179;SDS011;4131;48.810;11.892;2023-02-28T02:10:13;0.07;;;0.07;;
8179;SDS011;4131;48.810;11.892;2023-02-28T02:13:00;0.23;;;0.23;;
8179;SDS011;4131;48.810;11.892;2023-02-28T02:15:44;0.00;;;0.00;;
8179;SDS011;4131;48.810;11.892;2023-02-28T02:18:23;0.07;;;0.07;;
8179;SDS011;4131;48.810;11.892;2023-02-28T02:21:09;0.20;;;0.20;;
8179;SDS011;4131;48.810;11.892;2023-02-28T02:24:18;0.20;;;0.20;;
8179;SDS011;4131;48.810;11.892;2023-02-28T02:27:18;0.20;;;0.20;;
8179;SDS011;4131;48.810;11.892;2023-02-28T02:33:24;0.00;;;0.00;;
8179;SDS011;4131;48.810;11.892;2023-02-28T02:36:12;1.20;;;0.63;;
8179;SDS011;4131;48.810;11.892;2023-02-28T02:38:45;2.73;;;0.70;;
8179;SDS011;4131;48.810;11.892;2023-02-28T02:41:21;0.00;;;0.00;;
8179;SDS011;4131;48.810;11.892;2023-02-28T02:43:56;0.67;;;0.67;;
8179;SDS011;4131;48.810;11.892;2023-02-28T02:46:31;0.00;;;0.00;;
8179;SDS011;4131;48.810;11.892;2023-02-28T02:49:03;0.20;;;0.20;;
8179;SDS011;4131;48.810;11.892;2023-02-28T02:51:36;0.00;;;0.00;;
8179;SDS011;4131;48.810;11.892;2023-02-28T02:54:08;0.40;;;0.40;;
8179;SDS011;4131;48.810;11.892;2023-02-28T02:56:41;0.00;;;0.00;;
8179;SDS011;4131;48.810;11.892;2023-02-28T02:59:12;0.27;;;0.27;;
8179;SDS011;4131;48.810;11.892;2023-02-28T03:01:48;0.00;;;0.00;;
8179;SDS011;4131;48.810;11.892;2023-02-28T03:04:20;1.00;;;0.93;;
8179;SDS011;4131;48.810;11.892;2023-02-28T03:06:51;0.80;;;0.80;;
8179;SDS011;4131;48.810;11.892;2023-02-28T03:09:21;0.87;;;0.43;;
8179;SDS011;4131;48.810;11.892;2023-02-28T03:11:49;0.10;;;0.10;;
8179;SDS011;4131;48.810;11.892;2023-02-28T03:14:23;0.37;;;0.37;;
8179;SDS011;4131;48.810;11.892;2023-02-28T03:19:58;1.60;;;1.20;;
8179;SDS011;4131;48.810;11.892;2023-02-28T03:22:44;0.00;;;0.00;;
8179;SDS011;4131;48.810;11.892;2023-02-28T03:25:20;0.20;;;0.20;;
8179;SDS011;4131;48.810;11.892;2023-02-28T03:28:05;1.17;;;0.40;;
8179;SDS011;4131;48.810;11.892;2023-02-28T03:30:41;0.40;;;0.40;;
8179;SDS011;4131;48.810;11.892;2023-02-28T03:33:18;0.00;;;0.00;;
8179;SDS011;4131;48.810;11.892;2023-02-28T03:35:51;0.10;;;0.10;;
8179;SDS011;4131;48.810;11.892;2023-02-28T03:38:24;0.20;;;0.20;;
8179;SDS011;4131;48.810;11.892;2023-02-28T03:40:58;0.00;;;0.00;;
8179;SDS011;4131;48.810;11.892;2023-02-28T03:43:31;0.00;;;0.00;;
8179;SDS011;4131;48.810;11.892;2023-02-28T03:46:05;0.60;;;0.60;;
8179;SDS011;4131;48.810;11.892;2023-02-28T03:48:38;0.10;;;0.10;;
8179;SDS011;4131;48.810;11.892;2023-02-28T03:51:10;0.17;;;0.17;;
8179;SDS011;4131;48.810;11.892;2023-02-28T03:53:45;0.00;;;0.00;;
8179;SDS011;4131;48.810;11.892;2023-02-28T03:56:19;0.00;;;0.00;;
8179;SDS011;4131;48.810;11.892;2023-02-28T03:58:51;0.40;;;0.40;;
8179;SDS011;4131;48.810;11.892;2023-02-28T04:01:25;0.00;;;0.00;;
8179;SDS011;4131;48.810;11.892;2023-02-28T04:03:58;0.77;;;0.77;;
8179;SDS011;4131;48.810;11.892;2023-02-28T04:06:26;0.00;;;0.00;;
8179;SDS011;4131;48.810;11.892;2023-02-28T04:08:56;0.30;;;0.30;;
8179;SDS011;4131;48.810;11.892;2023-02-28T04:11:26;0.00;;;0.00;;
8179;SDS011;4131;48.810;11.892;2023-02-28T04:14:01;0.10;;;0.10;;
8179;SDS011;4131;48.810;11.892;2023-02-28T04:16:29;0.10;;;0.10;;
8179;SDS011;4131;48.810;11.892;2023-02-28T04:19:01;0.07;;;0.07;;
8179;SDS011;4131;48.810;11.892;2023-02-28T04:21:31;4.43;;;1.10;;
8179;SDS011;4131;48.810;11.892;2023-02-28T04:24:01;0.10;;;0.10;;
8179;SDS011;4131;48.810;11.892;2023-02-28T04:26:30;0.23;;;0.23;;
8179;SDS011;4131;48.810;11.892;2023-02-28T04:28:59;2.47;;;1.80;;
8179;SDS011;4131;48.810;11.892;2023-02-28T04:31:27;0.00;;;0.00;;
8179;SDS011;4131;48.810;11.892;2023-02-28T04:33:56;0.30;;;0.30;;
8179;SDS011;4131;48.810;11.892;2023-02-28T04:36:25;0.10;;;0.10;;
8179;SDS011;4131;48.810;11.892;2023-02-28T04:38:53;0.83;;;0.53;;
8179;SDS011;4131;48.810;11.892;2023-02-28T04:41:23;0.43;;;0.43;;
8179;SDS011;4131;48.810;11.892;2023-02-28T04:43:53;0.53;;;0.27;;
8179;SDS011;4131;48.810;11.892;2023-02-28T04:46:22;0.03;;;0.03;;
8179;SDS011;4131;48.810;11.892;2023-02-28T04:48:50;0.00;;;0.00;;
8179;SDS011;4131;48.810;11.892;2023-02-28T04:51:20;0.77;;;0.77;;
8179;SDS011;4131;48.810;11.892;2023-02-28T04:53:48;0.47;;;0.47;;
8179;SDS011;4131;48.810;11.892;2023-02-28T04:56:17;0.57;;;0.57;;
8179;SDS011;4131;48.810;11.892;2023-02-28T04:58:47;0.03;;;0.03;;
8179;SDS011;4131;48.810;11.892;2023-02-28T05:01:16;0.00;;;0.00;;
8179;SDS011;4131;48.810;11.892;2023-02-28T05:03:48;0.20;;;0.20;;
8179;SDS011;4131;48.810;11.892;2023-02-28T05:06:16;0.07;;;0.03;;
8179;SDS011;4131;48.810;11.892;2023-02-28T05:08:45;0.10;;;0.10;;
8179;SDS011;4131;48.810;11.892;2023-02-28T05:11:14;0.33;;;0.33;;
8179;SDS011;4131;48.810;11.892;2023-02-28T05:13:45;0.30;;;0.30;;
8179;SDS011;4131;48.810;11.892;2023-02-28T05:16:15;1.37;;;0.80;;
8179;SDS011;4131;48.810;11.892;2023-02-28T05:18:43;0.10;;;0.10;;
8179;SDS011;4131;48.810;11.892;2023-02-28T05:21:23;0.00;;;0.00;;
8179;SDS011;4131;48.810;11.892;2023-02-28T05:23:54;0.00;;;0.00;;
8179;SDS011;4131;48.810;11.892;2023-02-28T05:26:23;1.03;;;0.77;;
8179;SDS011;4131;48.810;11.892;2023-02-28T05:28:54;0.00;;;0.00;;
8179;SDS011;4131;48.810;11.892;2023-02-28T05:31:22;4.73;;;0.93;;
8179;SDS011;4131;48.810;11.892;2023-02-28T05:33:51;0.57;;;0.57;;
8179;SDS011;4131;48.810;11.892;2023-02-28T05:36:20;0.00;;;0.00;;
8179;SDS011;4131;48.810;11.892;2023-02-28T05:38:48;0.17;;;0.17;;
8179;SDS011;4131;48.810;11.892;2023-02-28T05:41:17;0.00;;;0.00;;
8179;SDS011;4131;48.810;11.892;2023-02-28T05:43:46;0.30;;;0.30;;
8179;SDS011;4131;48.810;11.892;2023-02-28T05:46:16;0.63;;;0.63;;
8179;SDS011;4131;48.810;11.892;2023-02-28T05:48:45;0.00;;;0.00;;
8179;SDS011;4131;48.810;11.892;2023-02-28T05:51:15;0.10;;;0.10;;
8179;SDS011;4131;48.810;11.892;2023-02-28T05:53:43;0.00;;;0.00;;
8179;SDS011;4131;48.810;11.892;2023-02-28T05:56:12;3.20;;;0.60;;
8179;SDS011;4131;48.810;11.892;2023-02-28T05:58:40;0.57;;;0.47;;
8179;SDS011;4131;48.810;11.892;2023-02-28T06:04:15;0.20;;;0.20;;
8179;SDS011;4131;48.810;11.892;2023-02-28T06:06:56;0.07;;;0.07;;
8179;SDS011;4131;48.810;11.892;2023-02-28T06:09:25;0.10;;;0.10;;
8179;SDS011;4131;48.810;11.892;2023-02-28T06:11:53;0.00;;;0.00;;
8179;SDS011;4131;48.810;11.892;2023-02-28T06:14:22;1.37;;;0.27;;
8179;SDS011;4131;48.810;11.892;2023-02-28T06:16:52;0.00;;;0.00;;
8179;SDS011;4131;48.810;11.892;2023-02-28T06:19:22;1.70;;;0.93;;
8179;SDS011;4131;48.810;11.892;2023-02-28T06:21:52;0.87;;;0.50;;
8179;SDS011;4131;48.810;11.892;2023-02-28T06:24:20;0.30;;;0.30;;
8179;SDS011;4131;48.810;11.892;2023-02-28T06:26:49;0.37;;;0.37;;
8179;SDS011;4131;48.810;11.892;2023-02-28T06:29:17;0.20;;;0.20;;
8179;SDS011;4131;48.810;11.892;2023-02-28T06:31:45;1.50;;;0.67;;
8179;SDS011;4131;48.810;11.892;2023-02-28T06:34:15;1.07;;;1.03;;
8179;SDS011;4131;48.810;11.892;2023-02-28T06:36:43;0.00;;;0.00;;
8179;SDS011;4131;48.810;11.892;2023-02-28T06:39:12;6.97;;;1.80;;
8179;SDS011;4131;48.810;11.892;2023-02-28T06:41:40;0.30;;;0.30;;
8179;SDS011;4131;48.810;11.892;2023-02-28T06:44:20;0.37;;;0.23;;
8179;SDS011;4131;48.810;11.892;2023-02-28T06:46:49;0.27;;;0.27;;
8179;SDS011;4131;48.810;11.892;2023-02-28T06:49:19;9.63;;;0.77;;
8179;SDS011;4131;48.810;11.892;2023-02-28T06:51:47;1.00;;;1.00;;
8179;SDS011;4131;48.810;11.892;2023-02-28T06:54:16;0.17;;;0.17;;
8179;SDS011;4131;48.810;11.892;2023-02-28T06:56:44;0.00;;;0.00;;
8179;SDS011;4131;48.810;11.892;2023-02-28T06:59:13;0.90;;;0.87;;
8179;SDS011;4131;48.810;11.892;2023-02-28T07:01:41;0.00;;;0.00;;
8179;SDS011;4131;48.810;11.892;2023-02-28T07:04:09;0.63;;;0.50;;
8179;SDS011;4131;48.810;11.892;2023-02-28T07:06:40;0.83;;;0.83;;
8179;SDS011;4131;48.810;11.892;2023-02-28T07:09:08;0.27;;;0.27;;
8179;SDS011;4131;48.810;11.892;2023-02-28T07:11:37;0.47;;;0.47;;
8179;SDS011;4131;48.810;11.892;2023-02-28T07:14:05;4.03;;;0.67;;
8179;SDS011;4131;48.810;11.892;2023-02-28T07:16:33;0.00;;;0.00;;
8179;SDS011;4131;48.810;11.892;2023-02-28T07:19:02;0.83;;;0.53;;
8179;SDS011;4131;48.810;11.892;2023-02-28T07:21:30;0.30;;;0.30;;
8179;SDS011;4131;48.810;11.892;2023-02-28T07:23:59;0.17;;;0.17;;
8179;SDS011;4131;48.810;11.892;2023-02-28T07:26:27;2.10;;;1.60;;
8179;SDS011;4131;48.810;11.892;2023-02-28T07:28:56;0.33;;;0.33;;
8179;SDS011;4131;48.810;11.892;2023-02-28T07:31:24;0.10;;;0.10;;
8179;SDS011;4131;48.810;11.892;2023-02-28T07:33:53;3.57;;;1.13;;
8179;SDS011;4131;48.810;11.892;2023-02-28T07:36:22;0.37;;;0.37;;
8179;SDS011;4131;48.810;11.892;2023-02-28T07:38:50;0.10;;;0.10;;
8179;SDS011;4131;48.810;11.892;2023-02-28T07:41:21;0.10;;;0.10;;
8179;SDS011;4131;48.810;11.892;2023-02-28T07:43:54;0.57;;;0.57;;
8179;SDS011;4131;48.810;11.892;2023-02-28T07:46:23;0.30;;;0.30;;
8179;SDS011;4131;48.810;11.892;2023-02-28T07:48:54;0.67;;;0.67;;
8179;SDS011;4131;48.810;11.892;2023-02-28T07:51:25;0.10;;;0.10;;
8179;SDS011;4131;48.810;11.892;2023-02-28T07:53:54;1.50;;;0.53;;
8179;SDS011;4131;48.810;11.892;2023-02-28T07:56:24;0.60;;;0.60;;
8179;SDS011;4131;48.810;11.892;2023-02-28T07:58:52;0.97;;;0.97;;
8179;SDS011;4131;48.810;11.892;2023-02-28T08:01:20;0.10;;;0.10;;
8179;SDS011;4131;48.810;11.892;2023-02-28T08:03:48;1.03;;;0.40;;
8179;SDS011;4131;48.810;11.892;2023-02-28T08:06:17;0.87;;;0.73;;
8179;SDS011;4131;48.810;11.892;2023-02-28T08:08:46;0.13;;;0.13;;
8179;SDS011;4131;48.810;11.892;2023-02-28T08:11:15;0.67;;;0.67;;
8179;SDS011;4131;48.810;11.892;2023-02-28T08:13:45;1.20;;;0.73;;
8179;SDS011;4131;48.810;11.892;2023-02-28T08:16:13;0.47;;;0.33;;
8179;SDS011;4131;48.810;11.892;2023-02-28T08:18:47;1.77;;;0.10;;
8179;SDS011;4131;48.810;11.892;2023-02-28T08:21:17;0.40;;;0.30;;
8179;SDS011;4131;48.810;11.892;2023-02-28T08:23:46;26.60;;;1.23;;
8179;SDS011;4131;48.810;11.892;2023-02-28T08:26:15;0.50;;;0.50;;
8179;SDS011;4131;48.810;11.892;2023-02-28T08:28:43;0.07;;;0.07;;
8179;SDS011;4131;48.810;11.892;2023-02-28T08:31:14;0.17;;;0.17;;
8179;SDS011;4131;48.810;11.892;2023-02-28T08:33:43;0.07;;;0.07;;
8179;SDS011;4131;48.810;11.892;2023-02-28T08:36:11;0.75;;;0.73;;
8179;SDS011;4131;48.810;11.892;2023-02-28T08:38:40;5.15;;;0.75;;
8179;SDS011;4131;48.810;11.892;2023-02-28T08:41:09;0.35;;;0.35;;
8179;SDS011;4131;48.810;11.892;2023-02-28T08:43:39;0.80;;;0.47;;
8179;SDS011;4131;48.810;11.892;2023-02-28T08:46:07;0.10;;;0.10;;
8179;SDS011;4131;48.810;11.892;2023-02-28T08:48:40;0.40;;;0.40;;
8179;SDS011;4131;48.810;11.892;2023-02-28T08:51:09;0.75;;;0.75;;
8179;SDS011;4131;48.810;11.892;2023-02-28T08:53:39;1.40;;;1.30;;
8179;SDS011;4131;48.810;11.892;2023-02-28T08:56:09;0.68;;;0.55;;
8179;SDS011;4131;48.810;11.892;2023-02-28T08:58:39;0.47;;;0.47;;
8179;SDS011;4131;48.810;11.892;2023-02-28T09:01:08;0.75;;;0.68;;
8179;SDS011;4131;48.810;11.892;2023-02-28T09:03:37;3.88;;;0.80;;
8179;SDS011;4131;48.810;11.892;2023-02-28T09:06:08;1.50;;;0.98;;
8179;SDS011;4131;48.810;11.892;2023-02-28T09:08:37;0.10;;;0.10;;
8179;SDS011;4131;48.810;11.892;2023-02-28T09:11:06;2.10;;;0.47;;
8179;SDS011;4131;48.810;11.892;2023-02-28T09:13:34;6.35;;;0.55;;
8179;SDS011;4131;48.810;11.892;2023-02-28T09:16:03;0.68;;;0.68;;
8179;SDS011;4131;48.810;11.892;2023-02-28T09:18:33;0.45;;;0.45;;
8179;SDS011;4131;48.810;11.892;2023-02-28T09:21:05;1.02;;;0.93;;
8179;SDS011;4131;48.810;11.892;2023-02-28T09:23:34;0.75;;;0.45;;
8179;SDS011;4131;48.810;11.892;2023-02-28T09:26:04;0.60;;;0.60;;
8179;SDS011;4131;48.810;11.892;2023-02-28T09:28:33;4.95;;;0.77;;
8179;SDS011;4131;48.810;11.892;2023-02-28T09:31:01;1.33;;;1.02;;
8179;SDS011;4131;48.810;11.892;2023-02-28T09:33:31;0.60;;;0.35;;
8179;SDS011;4131;48.810;11.892;2023-02-28T09:36:01;0.95;;;0.80;;
8179;SDS011;4131;48.810;11.892;2023-02-28T09:38:32;0.50;;;0.50;;
8179;SDS011;4131;48.810;11.892;2023-02-28T09:41:01;1.42;;;1.33;;
8179;SDS011;4131;48.810;11.892;2023-02-28T09:43:33;0.85;;;0.63;;
8179;SDS011;4131;48.810;11.892;2023-02-28T09:46:05;2.15;;;1.13;;
8179;SDS011;4131;48.810;11.892;2023-02-28T09:48:45;0.95;;;0.95;;
8179;SDS011;4131;48.810;11.892;2023-02-28T09:51:21;2.95;;;1.05;;
8179;SDS011;4131;48.810;11.892;2023-02-28T09:53:59;0.57;;;0.57;;
8179;SDS011;4131;48.810;11.892;2023-02-28T09:56:30;0.85;;;0.82;;
8179;SDS011;4131;48.810;11.892;2023-02-28T09:59:04;3.60;;;1.17;;
8179;SDS011;4131;48.810;11.892;2023-02-28T10:01:39;0.35;;;0.35;;
8179;SDS011;4131;48.810;11.892;2023-02-28T10:04:16;1.80;;;1.10;;
8179;SDS011;4131;48.810;11.892;2023-02-28T10:07:05;4.03;;;1.17;;
8179;SDS011;4131;48.810;11.892;2023-02-28T10:09:45;1.65;;;1.20;;
8179;SDS011;4131;48.810;11.892;2023-02-28T10:12:19;0.93;;;0.88;;
8179;SDS011;4131;48.810;11.892;2023-02-28T10:14:49;0.95;;;0.90;;
8179;SDS011;4131;48.810;11.892;2023-02-28T10:17:21;0.95;;;0.60;;
8179;SDS011;4131;48.810;11.892;2023-02-28T10:19:56;1.73;;;0.90;;
8179;SDS011;4131;48.810;11.892;2023-02-28T10:22:37;2.78;;;1.55;;
8179;SDS011;4131;48.810;11.892;2023-02-28T10:25:17;1.90;;;0.93;;
8179;SDS011;4131;48.810;11.892;2023-02-28T10:27:47;0.98;;;0.90;;
8179;SDS011;4131;48.810;11.892;2023-02-28T10:30:16;0.90;;;0.75;;
8179;SDS011;4131;48.810;11.892;2023-02-28T10:32:47;3.30;;;0.80;;
8179;SDS011;4131;48.810;11.892;2023-02-28T10:35:20;4.57;;;1.55;;
8179;SDS011;4131;48.810;11.892;2023-02-28T10:37:50;0.35;;;0.35;;
8179;SDS011;4131;48.810;11.892;2023-02-28T10:40:31;1.63;;;1.25;;
8179;SDS011;4131;48.810;11.892;2023-02-28T10:43:02;0.80;;;0.80;;
8179;SDS011;4131;48.810;11.892;2023-02-28T10:45:32;0.40;;;0.40;;
8179;SDS011;4131;48.810;11.892;2023-02-28T10:48:03;0.60;;;0.60;;
8179;SDS011;4131;48.810;11.892;2023-02-28T10:50:33;1.08;;;0.95;;
8179;SDS011;4131;48.810;11.892;2023-02-28T10:53:09;1.15;;;1.05;;
8179;SDS011;4131;48.810;11.892;2023-02-28T10:56:14;1.13;;;1.02;;
8179;SDS011;4131;48.810;11.892;2023-02-28T10:58:48;1.02;;;0.90;;
8179;SDS011;4131;48.810;11.892;2023-02-28T11:01:19;5.60;;;1.38;;
8179;SDS011;4131;48.810;11.892;2023-02-28T11:03:49;1.17;;;1.08;;
8179;SDS011;4131;48.810;11.892;2023-02-28T11:06:19;1.63;;;1.52;;
8179;SDS011;4131;48.810;11.892;2023-02-28T11:08:50;3.30;;;1.48;;
8179;SDS011;4131;48.810;11.892;2023-02-28T11:11:22;1.45;;;1.05;;
8179;SDS011;4131;48.810;11.892;2023-02-28T11:13:56;1.75;;;1.10;;
8179;SDS011;4131;48.810;11.892;2023-02-28T11:16:32;0.88;;;0.82;;
8179;SDS011;4131;48.810;11.892;2023-02-28T11:19:01;2.00;;;1.75;;
8179;SDS011;4131;48.810;11.892;2023-02-28T11:21:31;1.08;;;1.08;;
8179;SDS011;4131;48.810;11.892;2023-02-28T11:24:02;2.30;;;2.10;;
8179;SDS011;4131;48.810;11.892;2023-02-28T11:26:40;3.40;;;2.35;;
8179;SDS011;4131;48.810;11.892;2023-02-28T11:29:11;3.05;;;1.02;;
8179;SDS011;4131;48.810;11.892;2023-02-28T11:32:00;1.58;;;1.30;;
8179;SDS011;4131;48.810;11.892;2023-02-28T11:34:35;3.70;;;1.67;;
8179;SDS011;4131;48.810;11.892;2023-02-28T11:37:05;1.13;;;0.70;;
8179;SDS011;4131;48.810;11.892;2023-02-28T11:39:38;2.20;;;0.90;;
8179;SDS011;4131;48.810;11.892;2023-02-28T11:45:11;3.97;;;1.73;;
8179;SDS011;4131;48.810;11.892;2023-02-28T11:47:47;1.83;;;0.95;;
8179;SDS011;4131;48.810;11.892;2023-02-28T11:50:21;1.50;;;1.40;;
8179;SDS011;4131;48.810;11.892;2023-02-28T11:53:05;2.08;;;1.55;;
8179;SDS011;4131;48.810;11.892;2023-02-28T11:55:44;5.68;;;0.85;;
8179;SDS011;4131;48.810;11.892;2023-02-28T11:58:26;7.13;;;1.85;;
8179;SDS011;4131;48.810;11.892;2023-02-28T12:01:12;2.88;;;1.40;;
8179;SDS011;4131;48.810;11.892;2023-02-28T12:04:01;1.33;;;1.08;;
8179;SDS011;4131;48.810;11.892;2023-02-28T12:06:38;1.40;;;1.13;;
8179;SDS011;4131;48.810;11.892;2023-02-28T12:09:16;2.38;;;1.23;;
8179;SDS011;4131;48.810;11.892;2023-02-28T12:11:58;1.77;;;1.67;;
8179;SDS011;4131;48.810;11.892;2023-02-28T12:20:25;1.50;;;1.25;;
8179;SDS011;4131;48.810;11.892;2023-02-28T12:23:06;3.00;;;2.08;;
8179;SDS011;4131;48.810;11.892;2023-02-28T12:25:50;2.40;;;1.77;;
8179;SDS011;4131;48.810;11.892;2023-02-28T12:28:39;2.33;;;1.48;;
8179;SDS011;4131;48.810;11.892;2023-02-28T12:31:13;7.00;;;1.90;;
8179;SDS011;4131;48.810;11.892;2023-02-28T12:33:46;1.50;;;1.40;;
8179;SDS011;4131;48.810;11.892;2023-02-28T12:36:18;2.60;;;1.45;;
8179;SDS011;4131;48.810;11.892;2023-02-28T12:38:51;1.27;;;1.13;;
8179;SDS011;4131;48.810;11.892;2023-02-28T12:41:22;2.97;;;2.13;;
8179;SDS011;4131;48.810;11.892;2023-02-28T12:43:57;1.20;;;1.10;;
8179;SDS011;4131;48.810;11.892;2023-02-28T12:46:32;1.63;;;1.10;;
8179;SDS011;4131;48.810;11.892;2023-02-28T12:49:05;1.85;;;0.88;;
8179;SDS011;4131;48.810;11.892;2023-02-28T12:51:37;1.27;;;1.17;;
8179;SDS011;4131;48.810;11.892;2023-02-28T12:54:12;1.05;;;0.77;;
8179;SDS011;4131;48.810;11.892;2023-02-28T12:56:48;2.08;;;1.75;;
8179;SDS011;4131;48.810;11.892;2023-02-28T12:59:23;1.67;;;1.08;;
8179;SDS011;4131;48.810;11.892;2023-02-28T13:02:00;1.65;;;1.55;;
8179;SDS011;4131;48.810;11.892;2023-02-28T13:04:55;1.38;;;0.95;;
8179;SDS011;4131;48.810;11.892;2023-02-28T13:07:36;1.40;;;1.13;;
8179;SDS011;4131;48.810;11.892;2023-02-28T13:10:37;1.35;;;0.93;;
8179;SDS011;4131;48.810;11.892;2023-02-28T13:13:11;1.45;;;0.85;;
8179;SDS011;4131;48.810;11.892;2023-02-28T13:15:57;4.57;;;1.95;;
8179;SDS011;4131;48.810;11.892;2023-02-28T13:18:32;4.30;;;1.30;;
8179;SDS011;4131;48.810;11.892;2023-02-28T13:21:04;2.00;;;1.17;;
8179;SDS011;4131;48.810;11.892;2023-02-28T13:23:38;1.42;;;1.33;;
8179;SDS011;4131;48.810;11.892;2023-02-28T13:26:08;1.00;;;0.90;;
8179;SDS011;4131;48.810;11.892;2023-02-28T13:35:12;2.42;;;1.80;;
8179;SDS011;4131;48.810;11.892;2023-02-28T13:37:45;1.45;;;1.35;;
8179;SDS011;4131;48.810;11.892;2023-02-28T13:40:28;1.38;;;1.00;;
8179;SDS011;4131;48.810;11.892;2023-02-28T13:43:03;2.67;;;1.42;;
8179;SDS011;4131;48.810;11.892;2023-02-28T13:45:36;2.25;;;1.25;;
8179;SDS011;4131;48.810;11.892;2023-02-28T13:48:15;2.60;;;1.50;;
8179;SDS011;4131;48.810;11.892;2023-02-28T13:50:45;0.98;;;0.98;;
8179;SDS011;4131;48.810;11.892;2023-02-28T13:56:21;4.60;;;1.27;;
8179;SDS011;4131;48.810;11.892;2023-02-28T13:58:55;2.63;;;1.88;;
8179;SDS011;4131;48.810;11.892;2023-02-28T14:01:38;2.83;;;1.98;;
8179;SDS011;4131;48.810;11.892;2023-02-28T14:04:33;0.65;;;0.60;;
8179;SDS011;4131;48.810;11.892;2023-02-28T14:07:20;0.73;;;0.65;;
8179;SDS011;4131;48.810;11.892;2023-02-28T14:09:54;4.07;;;1.70;;
8179;SDS011;4131;48.810;11.892;2023-02-28T14:15:30;0.88;;;0.80;;
8179;SDS011;4131;48.810;11.892;2023-02-28T14:18:14;7.18;;;2.80;;
8179;SDS011;4131;48.810;11.892;2023-02-28T14:20:55;2.22;;;1.25;;
8179;SDS011;4131;48.810;11.892;2023-02-28T14:26:35;1.15;;;1.05;;
8179;SDS011;4131;48.810;11.892;2023-02-28T14:29:30;2.15;;;1.38;;
8179;SDS011;4131;48.810;11.892;2023-02-28T14:32:11;3.38;;;1.83;;
8179;SDS011;4131;48.810;11.892;2023-02-28T14:34:48;1.90;;;1.25;;
8179;SDS011;4131;48.810;11.892;2023-02-28T14:37:22;2.50;;;1.15;;
8179;SDS011;4131;48.810;11.892;2023-02-28T14:39:56;1.20;;;0.77;;
8179;SDS011;4131;48.810;11.892;2023-02-28T14:42:31;2.83;;;1.33;;
8179;SDS011;4131;48.810;11.892;2023-02-28T14:45:01;1.95;;;1.23;;
8179;SDS011;4131;48.810;11.892;2023-02-28T14:47:30;2.75;;;1.40;;
8179;SDS011;4131;48.810;11.892;2023-02-28T14:50:01;1.23;;;1.10;;
8179;SDS011;4131;48.810;11.892;2023-02-28T14:52:32;2.15;;;1.95;;
8179;SDS011;4131;48.810;11.892;2023-02-28T14:55:01;1.38;;;0.88;;
8179;SDS011;4131;48.810;11.892;2023-02-28T14:57:41;1.90;;;1.30;;
8179;SDS011;4131;48.810;11.892;2023-02-28T15:00:22;2.22;;;1.20;;
8179;SDS011;4131;48.810;11.892;2023-02-28T15:02:51;0.93;;;0.93;;
8179;SDS011;4131;48.810;11.892;2023-02-28T15:05:25;1.08;;;1.02;;
8179;SDS011;4131;48.810;11.892;2023-02-28T15:08:02;2.92;;;0.90;;
8179;SDS011;4131;48.810;11.892;2023-02-28T15:10:32;1.48;;;1.10;;
8179;SDS011;4131;48.810;11.892;2023-02-28T15:13:04;0.85;;;0.43;;
8179;SDS011;4131;48.810;11.892;2023-02-28T15:15:36;2.38;;;1.10;;
8179;SDS011;4131;48.810;11.892;2023-02-28T15:18:29;0.70;;;0.70;;
8179;SDS011;4131;48.810;11.892;2023-02-28T15:21:02;1.02;;;0.98;;
8179;SDS011;4131;48.810;11.892;2023-02-28T15:23:34;1.85;;;1.23;;
8179;SDS011;4131;48.810;11.892;2023-02-28T15:26:03;0.70;;;0.25;;
8179;SDS011;4131;48.810;11.892;2023-02-28T15:28:33;0.30;;;0.30;;
8179;SDS011;4131;48.810;11.892;2023-02-28T15:31:03;0.60;;;0.60;;
8179;SDS011;4131;48.810;11.892;2023-02-28T15:33:51;0.60;;;0.60;;
8179;SDS011;4131;48.810;11.892;2023-02-28T15:36:20;0.45;;;0.45;;
8179;SDS011;4131;48.810;11.892;2023-02-28T15:38:54;1.33;;;0.55;;
8179;SDS011;4131;48.810;11.892;2023-02-28T15:41:35;2.22;;;0.90;;
8179;SDS011;4131;48.810;11.892;2023-02-28T15:44:16;1.75;;;0.98;;
8179;SDS011;4131;48.810;11.892;2023-02-28T15:46:54;0.47;;;0.30;;
8179;SDS011;4131;48.810;11.892;2023-02-28T15:49:28;1.33;;;1.23;;
8179;SDS011;4131;48.810;11.892;2023-02-28T15:52:10;4.78;;;1.35;;
8179;SDS011;4131;48.810;11.892;2023-02-28T15:54:41;0.55;;;0.55;;
8179;SDS011;4131;48.810;11.892;2023-02-28T15:57:12;2.35;;;1.48;;
8179;SDS011;4131;48.810;11.892;2023-02-28T15:59:48;0.65;;;0.65;;
8179;SDS011;4131;48.810;11.892;2023-02-28T16:02:19;22.08;;;4.93;;
8179;SDS011;4131;48.810;11.892;2023-02-28T16:04:57;19.27;;;6.38;;
8179;SDS011;4131;48.810;11.892;2023-02-28T16:07:45;14.13;;;6.32;;
8179;SDS011;4131;48.810;11.892;2023-02-28T16:10:14;16.58;;;5.78;;